Ottumwa, IA

3:53 PM CDT on August 30, 2016 (GMT -0500)
East | | Change Station

Elev 833 ft 41.03 °N, 92.40 °W | Updated 19 seconds ago

Mostly Cloudy
Mostly Cloudy
79.9 °F
Feels Like 84 °F
N
3.0
Wind Variable Wind from NW
Gusts 4.0 mph

Today
High -- | Low -- °F
--% Chance of Precip.
Yesterday
High -- | Low -- °F
Precip. -- in
Pressure 30.10 in
Visibility 10.0 miles
Clouds Mostly Cloudy 1500 ft
Mostly Cloudy 12000 ft
Heat Index 84 °F
Dew Point 73 °F
Humidity 79%
Rainfall 0.49 in
Snow Depth Not available.
6:34 AM 7:44 PM
Waning Crescent, 2% visible
SPECI KOTM 302037Z AUTO 32006KT 10SM BKN015 BKN120 26/22 A3010 RMK AO2 T02610222
Pressure 30.10 in
Visibility 10.0 miles
Clouds Mostly Cloudy 1500 ft
Mostly Cloudy 12000 ft
Heat Index 84 °F
Dew Point 73 °F
Humidity 79%
Rainfall 0.49 in
Snow Depth Not available.
6:34 AM 7:44 PM
Waning Crescent, 2% visible
SPECI KOTM 302037Z AUTO 32006KT 10SM BKN015 BKN120 26/22 A3010 RMK AO2 T02610222

10-Day Weather Forecast

Almanac

Astronomy

Aug. 30, 2016 Rise Set
Actual Time
Civil Twilight
Nautical Twilight
Astronomical Twilight
Moon
Length of Visible Light
Length of Day
Tomorrow will be .
, % of the Moon is Illuminated

Today's Extremes

State Highs State Lows

Community

WunderPhotos

Upload Photos

1,935,889 photos uploaded!

WunderBlog® & News

Nearby

Air Quality

  Air Quality AQ Index Pollutant
Not available.

Snow Depth

Station Depth Elevation

Earthquake Activity

City Distance Mag. Time & Date
Minimum magnitude displayed is 2.5.

Coastal Water Temperatures

Place Temperature

Stations

Nearby Weather Stations

Station Location Temp. Windchill Dew Point Humidity Wind Precip. Elev Updated Type
                   

Watches & Warnings

There are currently no watches in effect.